Snoqualmie Pass
Mt. Washington
Latest observation 08/31 20:00 PDT
| Time (PDT) | Temp °F 4340' | Dir ° 4340' | RH % 4340' | SR W/m² 4340' |
|---|---|---|---|---|
| 08/31 20:00 | 61 | 160 | 55 | 7 |
| 08/31 19:00 | 65 | 180 | 46 | 10 |
| 08/31 18:00 | 65 | 140 | 42 | 10 |
| 08/31 17:00 | 67 | 154 | 41 | 10 |
| 08/31 16:00 | 68 | 145 | 40 | 10 |
| 08/31 15:00 | 67 | 162 | 44 | 10 |
| 08/31 14:00 | 66 | 167 | 47 | 10 |
| 08/31 13:00 | 63 | 148 | 51 | 10 |
| 08/31 12:00 | 62 | 152 | 52 | 10 |
| 08/31 11:00 | 59 | 82 | 58 | 10 |
| 08/31 10:00 | 58 | 82 | 60 | 9 |
| 08/31 09:00 | 57 | 64 | 61 | 9 |
| 08/31 08:00 | 55 | 72 | 61 | 9 |
| 08/31 07:00 | 53 | 145 | 64 | 3 |
| 08/31 06:00 | 53 | 86 | 63 | 0 |
| 08/31 05:00 | 52 | 187 | 68 | 0 |
| 08/31 04:00 | 52 | 66 | 65 | 0 |
| 08/31 03:00 | 49 | 22 | 72 | 0 |
| 08/31 02:00 | 47 | 36 | 79 | 0 |
| 08/31 01:00 | 47 | 69 | 82 | 0 |
| 08/31 00:00 | 45 | 40 | 89 | 0 |
| 08/30 23:00 | 46 | 62 | 87 | 0 |
| 08/30 22:00 | 46 | 63 | 86 | 0 |
| 08/30 21:00 | 46 | 79 | 88 | 0 |

